Timeline UpdatesTrip UpdatesNews PostsPvt PostsTravel TipsAdmin PostsConv PostsFollowed PostsChat RequestsBlog PostsPNR Posts

Disclaimer
Search
 
 
Fri Aug 22, 2014 11:27:14 ISTHomeTrainsΣChainsAtlasPNRForumGalleryNewsFAQTripsMembersLoginFeedback
No Recent News for this Train
Other Trains in the News **new
Latest...
Cancelled on 17/8/14 #1189754
Sun Aug 17, 2014 (12:25AM)
⇐ Return Journey: Train# 15484

14083⇒15483/Sikkim Mahananda Express

Jan 14 2014 (8:05PM)
Change Departure Station:
Change Arrival Station:
Post a Train Travel TipPost a Train Travel Tip **new
Post a Comment/Question/Picture/VideoPost a Comment/Question/Picture/Video
Pantry/Catering
✓ Pantry Car Avbl
✓ Catering Avbl
RSA - Rake Sharing
Rake/Coach Composition
LOCO-SLR-GS-GS-GS-AB-B1-PC-S11-PC-S10-S9-S8-S7-S6-S5-S4-S3-S2-S1-GS-GS-GS-SLR
Loco
SGUJ WDP-4 (APDJ to PNBE), GZB/MGS WAP-4 (PNBE to DLI)
News    PNR    Forum    Time-Table    Availability    Fare Chart    Map    Arr/Dep History    Trips    Gallery    ΣChains    X/O    Timeline    
Travel Time: 34h 55m    56 halts    Distance: 1652 km    Avg Speed: 47 km/hr
Type: Mail/Express
Zone: NFR/Northeast Frontier
Departs @ 07:15 (Avg 5h 7m late)
Platform# 1
SMTWTFS
Alipur Duar Junction/APDJ 
Arrives @ 18:10 +1 night (Avg 5h 49m late)
Platform# 11
SMTWTFS
Old Delhi Junction/DLI 

56 halts. 292 intermediate Stations between Alipur Duar Junction and Old Delhi Junction

Show ALL intermediate Stations  Show Old Time-Table

#CodeStation NameX/OArrivesAvgDepartsAvgHaltPFDay#KmSpeedElevZoneAddress
1APDJ»Alipur Duar Junction (3)»  -07:15+5:07110.06053mNFRDist - Alipurduar, West Bengal
2HSAHasimara (3)X  07:50+5:0807:52+5:082m--134.856123mNFRDist - Alipurduar, West Bengal
3DLODalgaon (3)  08:19+5:1808:20+5:191m1160.149 NFRDist : Alipurduar, West Bengal
4BNVBinnaguri (3)  08:31+5:2008:32+5:211m--169.162132mNFRDist : jalpaiguri, West Bengal
5NMZNew Mal Junction (3)X  09:15+5:3609:20+5:355m--1113.441161mNFRDist - Jalpaiguri, West Bengal
6SGUJSiliguri Junction (5)X  10:30+5:3610:35+5:395m--1161.229120mNFRDist-Darjeeling Siliguri-734001, West Bengal
7NJPNew Jalpaiguri Junction (8)X  10:50+5:5811:10+5:4720m31168.576114mNFRCity-Siliguri . Dist-Jalpaiguri, West Bengal
8AUBAluabari Road (2)  11:55+5:4211:57+5:422m21225.2730mNFRDist - uttar Dinajpur, West Bengal
9KNEKishanGanj (3)X  12:22+5:5412:27+5:545m21255.86852mNFRKishanganj, Bihar
10DLKDalkhola (3)X  12:52+5:5312:53+5:561m101284.37644mNFRDalkola, West Bengal
11BOEBarsoi Junction (3)  13:16+6:0413:18+6:042m--1313.45737mNFRdist- katihar, Bihar
12AZRAzamnagar Road (3)  13:32+5:4613:33+5:391m--1326.73534mNFRAzamnagar, Bihar
13LAVLabha (2)  14:09+5:4314:10+5:441m11347.81829mNFRDist : Katihar, Bihar
14KIRKatihar Junction (7)XO  15:25+5:4015:45+5:3820m51370.64335mNFRKatihar 854105, Bihar
15SMOSemapur16:01+5:5116:03+5:512m--1382.1-35mECRKatihar, Bihar
16CRRKaragola Road  16:06+5:4816:07+5:521m--1392.96836mECRLachhmipur, Bihar
17KUEKurselaX  16:22+5:5116:23+5:561m--1409.87431mECRNH 31, Bihar
18NNANaugachia  16:38+5:5816:39+5:501m--1428.46037mECRBhagalpur, Bihar
19THBThana Bihpur JunctionXO  16:55+5:5216:56+5:551m--1444.31639mECRThana Bihpur, Bihar
20NNRNarayanpur  17:24+5:3817:25+5:431m--1451.95039mECRNarayanpur, Bihar
21PSRPasrahaX  17:39+5:4417:40+5:511m--1463.55341mECRPasraha, Bihar
22MSKMahes Khunt  17:54+5:5317:55+5:591m--1475.95737mECRMaheshkhunt, Bihar
23MNEMansi Junction (3)X  18:06+6:0218:07+6:061m--1486.33143mECRMansi, Bihar
24KGGKhagaria Junction (3)X  18:24+6:0118:25+6:061m--1495.15343mECRKhagaria, Bihar
25SKJSahibpur Kamal Junction (2)  18:39+6:0618:40+6:071m--1507.54241mECRShahpur Kamal, Bihar
26LKNLakhminia  18:54+6:0318:55+6:061m--1517.22245mECRBegusarai, Bihar
27BGSBegu Sarai (3)X  19:44+5:5419:45+5:561m--1535.015 ECRBegusarai, Bihar
28BJUBarauni Junction (9)X  20:40+5:5220:45+5:555m11548.41949mECRBegusarai, Bihar
29MKAMokama Junction (4)X  21:51+6:1321:53+6:142m31569.18848mECRPatna, Bihar
30BKPBakhtiyarpur Junction (5)  22:23+6:0522:25+6:062m--1613.24951mECRPatna, Bihar
31PNBEPatna Junction (10)X  23:20+6:1223:45+6:1825m41658.33557mECRPatna 800001, Bihar
32DNRDanapur (5)  00:01+6:0600:03+6:062m--2667.79158mECRKhagaul, Bihar
33ARAAra Junction (3)  00:29+6:1300:31+6:142m--2707.37163mECRarrah( 06182-233411), Bihar
34BXRBuxar (3)X  01:29+5:3701:32+5:373m--2775.84267mECRBuxar, Bihar
35MGSMughal Sarai Junction (8)X  03:45+5:2804:00+5:2915m42869.76483mECRMughalsarai 232101, Uttar Pradesh
36MZPMirzapur (3)  04:59+5:4705:00+5:501m--2932.94088mNCRMirzapur, Uttar Pradesh
37BDLVindhyachal (3)X  05:11+6:0305:12+6:041m--2940.28888mNCRMirzapur, Uttar Pradesh
38NYNNaini Junction (4)  06:03+5:5306:05+5:542m221014.91798mNCRAllahabad, Uttar Pradesh
39ALDAllahabad Junction (10)X  06:30+5:5406:35+5:555m321022.089100mNCRAllahabad 211003, Uttar Pradesh
40FTPFatehpur (3)  07:54+6:1707:55+6:201m--21138.862120mNCRFatehpur, Uttar Pradesh
41CNBKanpur Central (10)  09:10+6:2009:20+6:2310m521216.441128mNCRKANPUR-208 001, Uttar Pradesh
42PNKPanki (3)X  09:37+6:0109:38+6:101m--21227.976129mNCRKANPUR-208 020, Uttar Pradesh
43RURARura (4)X  10:04+5:4710:05+5:491m--21260.771137mNCRJhinjhak, Uttar Pradesh
44JJKJhinjhak (3)  10:21+5:3410:22+5:371m321279.759140mNCRAuraiya, Uttar Pradesh
45PHDPhaphund (4)X  10:42+5:5310:43+5:541m--21299.653146mNCRdist. Auraiya, Uttar Pradesh
46ULDAchalda (3)X  11:02+5:1711:03+5:191m--21316.365147mNCRDist. Auraiya(05688-1072), Uttar Pradesh
47BNTBharthana (3)X  11:21+5:1811:22+5:201m--21335.952147mNCRBharthana, Uttar Pradesh
48ETWEtawah (5)X  11:45+5:1211:46+5:131m221355.772154mNCRDistt. Etawah, Uttar Pradesh
49SKBShikohabad Junction (4)  12:32+5:2912:33+5:301m321411.157166mNCRDistrict Firozabad, Uttar Pradesh
50FZDFirozabad (4)O  12:54+5:0712:55+5:081m321431.025164mNCRFirozabad, Uttar Pradesh
51TDLTundla Junction (5)  13:35+4:4213:45+4:4110m221447.670167mNCRDistt.Firozabad, Uttar Pradesh
52JLSJalesar Road (1)X  14:09+5:0014:10+5:061m121475.463172mNCRMDR 106W, Uttar Pradesh
53HRSHathras Junction (3)  14:29+5:4714:30+5:491m--21495.560183mNCRMahamaya Nagar(05722-242803), Uttar Pradesh
54ALJNAligarh Junction (4)O  15:00+6:0115:05+6:025m221525.775192mNCRAligarh, Uttar Pradesh
55KRJKhurja Junction (4)XO  15:40+5:3715:45+5:355m--21569.238199mNCRBulandshahr, Uttar Pradesh
56GZBGhaziabad Junction (6)X  17:25+5:2017:30+5:195m321631.943217mNRGhaziabad, Uttar Pradesh
57DSAShahdara Junction (4)  17:49+5:4817:50+5:481m--21645.519212mNRCircular Rd, Delhi NCT
58DLI•Old Delhi Junction (16)•  18:10+5:49-1121651.8-219mNRNear Chandni Chowk Metro Station, Delhi NCT
Scroll to Top
Scroll to Bottom